Dades meteomassalio
Diari Summary for Gener 5, 2017 Units:  Metric    English   Both
« Previous Day
Next Day »
Diari Semanal Mensual Anual Personalitzat
  Maxima: Minima: Mijana:
Temperatura: 12.1 °C 2.9 °C 8.3 °C
Rosada: 2.8 °C -8.3 °C -2.4 °C
Humitat: 70 % 25 % 50 %
Velocitat del vent: 0.0 km/h 0.0 km/h 0 km/h
Racha vent: 0.0 km/h - -
Vent:- - North
Pressio: 1028.7 hPa 1023.6 hPa -
Pluja: 0.0 mm    
Historical Graphs
 
 
Tabular Data for Gener 5, 2017
Time Temperature Dew Point Pressure Wind Wind Speed Wind Gust Humidity Rainfall Rate (Hourly) solar Conditions
00:04 8.8 °C -1.1 °C 1025.3 hPa Calm     50 % 0.0 mm 0.0 W/m2 RA
00:09 8.7 °C -0.9 °C 1025.3 hPa Calm     51 % 0.0 mm 0.0 W/m2 CLR
00:14 8.6 °C 0.0 °C 1025.3 hPa Calm     55 % 0.0 mm 0.0 W/m2 CLR
00:19 8.3 °C 0.2 °C 1025.3 hPa Calm     57 % 0.0 mm 0.0 W/m2 CLR
00:24 8.0 °C 0.4 °C 1025.3 hPa Calm     59 % 0.0 mm 0.0 W/m2 CLR
00:29 7.8 °C 0.6 °C 1025.3 hPa Calm     60 % 0.0 mm 0.0 W/m2 CLR
00:34 7.7 °C 0.8 °C 1025.3 hPa Calm     62 % 0.0 mm 0.0 W/m2 CLR
00:39 7.6 °C 1.0 °C 1025.3 hPa Calm     63 % 0.0 mm 0.0 W/m2 CLR
00:44 7.3 °C 1.2 °C 1025.3 hPa Calm     65 % 0.0 mm 0.0 W/m2 CLR
00:49 7.2 °C 1.2 °C 1025.3 hPa Calm     66 % 0.0 mm 0.0 W/m2 CLR
00:54 7.1 °C 1.3 °C 1025.3 hPa Calm     67 % 0.0 mm 0.0 W/m2 CLR
00:59 7.1 °C 0.9 °C 1024.9 hPa Calm     65 % 0.0 mm 0.0 W/m2 CLR
01:04 7.4 °C 0.8 °C 1024.9 hPa Calm     63 % 0.0 mm 0.0 W/m2 CLR
01:09 8.1 °C 0.8 °C 1024.9 hPa Calm     60 % 0.0 mm 0.0 W/m2 CLR
01:14 8.4 °C 0.8 °C 1024.9 hPa Calm     59 % 0.0 mm 0.0 W/m2 CLR
01:19 8.5 °C 1.2 °C 1024.9 hPa Calm     60 % 0.0 mm 0.0 W/m2 CLR
01:24 8.6 °C 1.1 °C 1024.9 hPa Calm     59 % 0.0 mm 0.0 W/m2 CLR
01:29 8.8 °C 1.4 °C 1025.3 hPa Calm     60 % 0.0 mm 0.0 W/m2 CLR
01:34 8.8 °C 1.3 °C 1025.3 hPa Calm     59 % 0.0 mm 0.0 W/m2 CLR
01:39 8.8 °C 1.5 °C 1024.9 hPa Calm     60 % 0.0 mm 0.0 W/m2 CLR
01:44 8.8 °C 1.9 °C 1024.9 hPa Calm     62 % 0.0 mm 0.0 W/m2 CLR
01:49 8.9 °C 2.0 °C 1024.9 hPa Calm     62 % 0.0 mm 0.0 W/m2 CLR
01:54 8.8 °C 1.7 °C 1024.9 hPa Calm     61 % 0.0 mm 0.0 W/m2 CLR
01:59 8.8 °C 2.6 °C 1024.9 hPa Calm     65 % 0.0 mm 0.0 W/m2 CLR
02:04 8.8 °C 2.3 °C 1024.9 hPa Calm     64 % 0.0 mm 0.0 W/m2 CLR
02:09 8.8 °C 1.7 °C 1024.9 hPa Calm     61 % 0.0 mm 0.0 W/m2 CLR
02:14 8.9 °C 2.2 °C 1024.9 hPa Calm     63 % 0.0 mm 0.0 W/m2 CLR
02:19 8.8 °C 2.4 °C 1024.9 hPa Calm     64 % 0.0 mm 0.0 W/m2 CLR
02:24 8.8 °C 2.3 °C 1024.9 hPa Calm     64 % 0.0 mm 0.0 W/m2 CLR
02:29 8.7 °C 2.5 °C 1024.9 hPa Calm     65 % 0.0 mm 0.0 W/m2 CLR
02:34 8.6 °C 2.8 °C 1024.9 hPa Calm     67 % 0.0 mm 0.0 W/m2 CLR
02:39 8.5 °C 2.7 °C 1024.9 hPa Calm     67 % 0.0 mm 0.0 W/m2 CLR
02:44 8.4 °C 2.6 °C 1024.9 hPa Calm     67 % 0.0 mm 0.0 W/m2 CLR
02:49 8.4 °C 2.4 °C 1024.9 hPa Calm     66 % 0.0 mm 0.0 W/m2 CLR
02:54 8.5 °C 2.5 °C 1024.9 hPa Calm     66 % 0.0 mm 0.0 W/m2 CLR
02:59 8.6 °C 2.3 °C 1024.9 hPa Calm     65 % 0.0 mm 0.0 W/m2 CLR
03:04 8.6 °C 2.1 °C 1024.9 hPa Calm     64 % 0.0 mm 0.0 W/m2 CLR
03:09 8.6 °C 2.1 °C 1024.6 hPa Calm     64 % 0.0 mm 0.0 W/m2 CLR
03:14 8.6 °C 2.4 °C 1024.6 hPa Calm     65 % 0.0 mm 0.0 W/m2 CLR
03:19 8.4 °C 2.2 °C 1024.6 hPa Calm     65 % 0.0 mm 0.0 W/m2 CLR
03:24 8.4 °C 2.4 °C 1024.6 hPa Calm     66 % 0.0 mm 0.0 W/m2 CLR
03:29 8.3 °C 2.1 °C 1024.6 hPa Calm     65 % 0.0 mm 0.0 W/m2 CLR
03:34 8.4 °C 1.7 °C 1024.9 hPa Calm     63 % 0.0 mm 0.0 W/m2 CLR
03:40 8.3 °C 1.9 °C 1024.9 hPa Calm     64 % 0.0 mm 0.0 W/m2 CLR
03:45 8.3 °C 1.9 °C 1024.9 hPa Calm     64 % 0.0 mm 0.0 W/m2 CLR
03:50 8.2 °C 1.8 °C 1024.9 hPa Calm     64 % 0.0 mm 0.0 W/m2 CLR
03:55 8.2 °C 1.8 °C 1024.9 hPa Calm     64 % 0.0 mm 0.0 W/m2 CLR
04:00 8.3 °C 2.1 °C 1024.6 hPa Calm     65 % 0.0 mm 0.0 W/m2 CLR
04:05 8.3 °C 2.1 °C 1024.6 hPa Calm     65 % 0.0 mm 0.0 W/m2 CLR
04:10 8.2 °C 2.2 °C 1024.6 hPa Calm     66 % 0.0 mm 0.0 W/m2 CLR
04:15 8.2 °C 2.0 °C 1024.6 hPa Calm     65 % 0.0 mm 0.0 W/m2 CLR
04:20 8.2 °C 1.6 °C 1024.3 hPa Calm     63 % 0.0 mm 0.0 W/m2 CLR
04:25 8.3 °C 1.4 °C 1024.6 hPa Calm     62 % 0.0 mm 0.0 W/m2 CLR
04:30 8.5 °C 1.8 °C 1024.6 hPa Calm     63 % 0.0 mm 0.0 W/m2 CLR
04:35 8.5 °C 2.1 °C 1024.3 hPa Calm     64 % 0.0 mm 0.0 W/m2 CLR
04:40 8.4 °C 2.2 °C 1024.6 hPa Calm     65 % 0.0 mm 0.0 W/m2 CLR
04:45 8.3 °C 2.3 °C 1024.3 hPa Calm     66 % 0.0 mm 0.0 W/m2 CLR
04:50 8.1 °C 2.3 °C 1024.3 hPa Calm     67 % 0.0 mm 0.0 W/m2 CLR
04:55 7.9 °C 2.4 °C 1024.3 hPa Calm     68 % 0.0 mm 0.0 W/m2 CLR
05:00 7.9 °C 2.4 °C 1024.3 hPa Calm     68 % 0.0 mm 0.0 W/m2 CLR
05:05 7.9 °C 2.1 °C 1024.3 hPa Calm     67 % 0.0 mm 0.0 W/m2 CLR
05:10 7.9 °C 2.1 °C 1024.3 hPa Calm     67 % 0.0 mm 0.0 W/m2 CLR
05:15 7.9 °C 2.1 °C 1024.3 hPa Calm     67 % 0.0 mm 0.0 W/m2 CLR
05:20 7.8 °C 1.4 °C 1024.3 hPa Calm     64 % 0.0 mm 0.0 W/m2 CLR
05:25 7.8 °C 1.9 °C 1024.3 hPa Calm     66 % 0.0 mm 0.0 W/m2 CLR
05:30 7.8 °C 2.1 °C 1024.3 hPa Calm     67 % 0.0 mm 0.0 W/m2 CLR
05:35 7.7 °C 2.2 °C 1024.3 hPa Calm     68 % 0.0 mm 0.0 W/m2 CLR
05:40 7.7 °C 2.0 °C 1024.3 hPa Calm     67 % 0.0 mm 0.0 W/m2 CLR
05:45 7.7 °C 1.8 °C 1024.3 hPa Calm     66 % 0.0 mm 0.0 W/m2 CLR
05:50 7.7 °C 1.8 °C 1024.3 hPa Calm     66 % 0.0 mm 0.0 W/m2 CLR
05:55 7.7 °C 1.6 °C 1023.9 hPa Calm     65 % 0.0 mm 0.0 W/m2 CLR
06:00 7.8 °C 1.4 °C 1024.3 hPa Calm     64 % 0.0 mm 0.0 W/m2 CLR
06:05 7.8 °C 1.8 °C 1024.3 hPa Calm     66 % 0.0 mm 0.0 W/m2 CLR
06:10 7.8 °C 1.4 °C 1024.3 hPa Calm     64 % 0.0 mm 0.0 W/m2 CLR
06:15 7.8 °C 1.6 °C 1024.3 hPa Calm     65 % 0.0 mm 0.0 W/m2 CLR
06:20 7.7 °C 1.7 °C 1024.3 hPa Calm     66 % 0.0 mm 0.0 W/m2 CLR
06:25 7.5 °C 1.8 °C 1024.3 hPa Calm     67 % 0.0 mm 0.0 W/m2 CLR
06:30 7.4 °C 1.7 °C 1024.3 hPa Calm     67 % 0.0 mm 0.0 W/m2 CLR
06:35 7.4 °C 1.2 °C 1024.6 hPa Calm     65 % 0.0 mm 0.0 W/m2 CLR
06:40 7.3 °C 0.9 °C 1024.6 hPa Calm     64 % 0.0 mm 0.0 W/m2 CLR
06:45 7.2 °C 1.0 °C 1024.6 hPa Calm     65 % 0.0 mm 0.0 W/m2 CLR
06:50 6.9 °C 1.2 °C 1024.6 hPa Calm     67 % 0.0 mm 0.0 W/m2 CLR
06:55 6.7 °C 1.2 °C 1024.6 hPa Calm     68 % 0.0 mm 0.0 W/m2 CLR
07:00 6.3 °C 1.1 °C 1024.6 hPa Calm     69 % 0.0 mm 0.0 W/m2 CLR
07:05 6.2 °C 1.1 °C 1024.6 hPa Calm     70 % 0.0 mm 0.0 W/m2 CLR
07:10 5.9 °C 0.8 °C 1024.6 hPa Calm     70 % 0.0 mm 0.0 W/m2 CLR
07:15 5.8 °C 0.6 °C 1024.6 hPa Calm     69 % 0.0 mm 0.0 W/m2 CLR
07:20 5.7 °C 0.4 °C 1024.6 hPa Calm     69 % 0.0 mm 0.0 W/m2 CLR
07:25 5.7 °C 0.3 °C 1024.6 hPa Calm     68 % 0.0 mm 0.0 W/m2 CLR
07:30 5.7 °C 0.1 °C 1024.6 hPa Calm     67 % 0.0 mm 0.0 W/m2 CLR
07:35 5.7 °C -0.2 °C 1024.6 hPa Calm     66 % 0.0 mm 0.0 W/m2 CLR
07:40 5.7 °C -0.6 °C 1024.6 hPa Calm     64 % 0.0 mm 0.0 W/m2 CLR
07:45 5.8 °C -0.7 °C 1024.6 hPa Calm     63 % 0.0 mm 0.0 W/m2 CLR
07:50 5.9 °C -1.1 °C 1024.6 hPa Calm     61 % 0.0 mm 0.0 W/m2 CLR
07:55 5.9 °C -1.5 °C 1024.6 hPa Calm     59 % 0.0 mm 0.0 W/m2 CLR
08:00 6.1 °C -1.6 °C 1024.6 hPa Calm     58 % 0.0 mm 0.0 W/m2 CLR
08:05 6.1 °C -1.8 °C 1024.6 hPa Calm     57 % 0.0 mm 0.0 W/m2 CLR
08:10 5.9 °C -2.2 °C 1024.6 hPa Calm     56 % 0.0 mm 0.0 W/m2 CLR
08:16 5.9 °C -2.2 °C 1024.6 hPa Calm     56 % 0.0 mm 0.0 W/m2 CLR
08:21 5.8 °C -3.0 °C 1024.6 hPa Calm     53 % 0.0 mm 0.0 W/m2 CLR
08:26 5.9 °C -3.2 °C 1024.6 hPa Calm     52 % 0.0 mm 5.0 W/m2 BKN
08:31 5.9 °C -3.4 °C 1024.9 hPa Calm     51 % 0.0 mm 7.0 W/m2 BKN
08:36 5.9 °C -3.2 °C 1024.9 hPa Calm     52 % 0.0 mm 9.0 W/m2 BKN
08:41 5.7 °C -3.7 °C 1024.9 hPa Calm     51 % 0.0 mm 11.0 W/m2 BKN
08:46 6.1 °C -4.2 °C 1024.9 hPa Calm     48 % 0.0 mm 12.0 W/m2 BKN
08:51 6.3 °C -4.2 °C 1024.9 hPa Calm     47 % 0.0 mm 14.0 W/m2 BKN
08:56 6.4 °C -4.3 °C 1024.9 hPa Calm     46 % 0.0 mm 18.0 W/m2 BKN
09:01 6.7 °C -4.7 °C 1024.9 hPa Calm     44 % 0.0 mm 21.0 W/m2 BKN
09:06 6.9 °C -5.8 °C 1024.9 hPa Calm     40 % 0.0 mm 26.0 W/m2 BKN
09:11 7.3 °C -5.8 °C 1024.9 hPa Calm     39 % 0.0 mm 40.0 W/m2 BKN
09:16 7.6 °C -6.2 °C 1025.3 hPa Calm     37 % 0.0 mm 53.0 W/m2 BKN
09:21 7.8 °C -6.8 °C 1024.9 hPa Calm     35 % 0.0 mm 44.0 W/m2 BKN
09:26 8.0 °C -6.2 °C 1024.9 hPa Calm     36 % 0.0 mm 67.0 W/m2 BKN
09:31 8.2 °C -7.1 °C 1024.9 hPa Calm     33 % 0.0 mm 83.0 W/m2 BKN
09:36 8.2 °C -6.7 °C 1025.3 hPa Calm     34 % 0.0 mm 83.0 W/m2 BKN
09:41 8.2 °C -7.1 °C 1025.3 hPa Calm     33 % 0.0 mm 116.0 W/m2 BKN
09:46 8.3 °C -7.4 °C 1025.3 hPa Calm     32 % 0.0 mm 130.0 W/m2 BKN
09:51 8.5 °C -6.9 °C 1025.3 hPa Calm     33 % 0.0 mm 111.0 W/m2 BKN
09:56 8.6 °C -7.2 °C 1025.3 hPa Calm     32 % 0.0 mm 160.0 W/m2 BKN
10:01 8.7 °C -7.1 °C 1025.3 hPa Calm     32 % 0.0 mm 174.0 W/m2 SCT
10:06 8.7 °C -7.9 °C 1025.6 hPa Calm     30 % 0.0 mm 141.0 W/m2 SCT
10:11 8.8 °C -8.3 °C 1025.6 hPa Calm     29 % 0.0 mm 193.0 W/m2 BKN
10:16 9.0 °C -7.7 °C 1025.3 hPa Calm     30 % 0.0 mm 111.0 W/m2 SCT
10:21 9.1 °C -6.8 °C 1025.3 hPa Calm     32 % 0.0 mm 229.0 W/m2 SCT
10:26 9.1 °C -7.2 °C 1025.3 hPa Calm     31 % 0.0 mm 244.0 W/m2 SCT
10:31 9.2 °C -7.5 °C 1025.6 hPa Calm     30 % 0.0 mm 258.0 W/m2 SCT
10:36 9.2 °C -6.7 °C 1025.3 hPa Calm     32 % 0.0 mm 269.0 W/m2 SCT
10:41 9.3 °C -6.9 °C 1025.3 hPa Calm     31 % 0.0 mm 279.0 W/m2 SCT
10:46 9.4 °C -6.5 °C 1025.3 hPa Calm     32 % 0.0 mm 290.0 W/m2 SCT
10:51 9.5 °C -6.0 °C 1025.6 hPa Calm     33 % 0.0 mm 301.0 W/m2 FEW
10:56 9.7 °C -5.4 °C 1025.6 hPa Calm     34 % 0.0 mm 311.0 W/m2 FEW
11:01 9.8 °C -5.8 °C 1025.6 hPa Calm     33 % 0.0 mm 320.0 W/m2 FEW
11:06 9.8 °C -6.9 °C 1025.6 hPa Calm     30 % 0.0 mm 329.0 W/m2 FEW
11:11 9.9 °C -7.8 °C 1025.6 hPa Calm     28 % 0.0 mm 338.0 W/m2 FEW
11:16 9.9 °C -7.3 °C 1025.6 hPa Calm     29 % 0.0 mm 346.0 W/m2 FEW
11:21 10.0 °C -6.8 °C 1025.6 hPa Calm     30 % 0.0 mm 353.0 W/m2 FEW
11:26 10.1 °C -7.2 °C 1025.6 hPa Calm     29 % 0.0 mm 360.0 W/m2 FEW
11:31 10.1 °C -7.2 °C 1025.6 hPa Calm     29 % 0.0 mm 369.0 W/m2 FEW
11:36 10.2 °C -7.5 °C 1025.6 hPa Calm     28 % 0.0 mm 376.0 W/m2 FEW
11:42 10.3 °C -6.9 °C 1025.6 hPa Calm     29 % 0.0 mm 383.0 W/m2 FEW
11:47 10.4 °C -7.3 °C 1025.6 hPa Calm     28 % 0.0 mm 390.0 W/m2 FEW
11:52 10.6 °C -6.3 °C 1025.6 hPa Calm     30 % 0.0 mm 396.0 W/m2 FEW
11:57 10.7 °C -6.2 °C 1025.3 hPa Calm     30 % 0.0 mm 401.0 W/m2 CLR
12:02 10.8 °C -6.1 °C 1025.3 hPa Calm     30 % 0.0 mm 408.0 W/m2 CLR
12:07 10.8 °C -7.4 °C 1025.3 hPa Calm     27 % 0.0 mm 411.0 W/m2 CLR
12:12 10.7 °C -7.1 °C 1025.3 hPa Calm     28 % 0.0 mm 417.0 W/m2 CLR
12:17 10.8 °C -6.6 °C 1025.3 hPa Calm     29 % 0.0 mm 420.0 W/m2 CLR
12:22 10.9 °C -7.4 °C 1025.3 hPa Calm     27 % 0.0 mm 425.0 W/m2 CLR
12:27 10.9 °C -6.9 °C 1025.3 hPa Calm     28 % 0.0 mm 429.0 W/m2 CLR
12:32 11.1 °C -7.3 °C 1024.9 hPa Calm     27 % 0.0 mm 432.0 W/m2 CLR
12:37 11.2 °C -7.6 °C 1025.3 hPa Calm     26 % 0.0 mm 434.0 W/m2 CLR
12:42 11.2 °C -8.2 °C 1025.3 hPa Calm     25 % 0.0 mm 436.0 W/m2 CLR
12:47 11.0 °C -7.8 °C 1025.3 hPa Calm     26 % 0.0 mm 438.0 W/m2 CLR
12:52 11.1 °C -7.3 °C 1024.9 hPa Calm     27 % 0.0 mm 439.0 W/m2 CLR
12:57 11.1 °C -7.7 °C 1024.9 hPa Calm     26 % 0.0 mm 441.0 W/m2 CLR
13:02 11.2 °C -7.1 °C 1024.9 hPa Calm     27 % 0.0 mm 441.0 W/m2 CLR
13:07 11.2 °C -8.2 °C 1024.6 hPa Calm     25 % 0.0 mm 441.0 W/m2 CLR
13:12 11.1 °C -7.7 °C 1024.6 hPa Calm     26 % 0.0 mm 441.0 W/m2 CLR
13:17 11.2 °C -7.2 °C 1024.6 hPa Calm     27 % 0.0 mm 439.0 W/m2 CLR
13:22 11.3 °C -7.1 °C 1024.3 hPa Calm     27 % 0.0 mm 439.0 W/m2 CLR
13:27 11.4 °C -6.1 °C 1024.3 hPa Calm     29 % 0.0 mm 439.0 W/m2 CLR
13:32 11.4 °C -7.4 °C 1024.3 hPa Calm     26 % 0.0 mm 438.0 W/m2 CLR
13:37 11.4 °C -6.9 °C 1024.3 hPa Calm     27 % 0.0 mm 434.0 W/m2 CLR
13:42 11.5 °C -6.9 °C 1024.3 hPa Calm     27 % 0.0 mm 432.0 W/m2 CLR
13:47 11.6 °C -6.3 °C 1024.3 hPa Calm     28 % 0.0 mm 425.0 W/m2 CLR
13:52 11.6 °C -6.3 °C 1023.9 hPa Calm     28 % 0.0 mm 425.0 W/m2 CLR
13:57 11.7 °C -6.2 °C 1024.3 hPa Calm     28 % 0.0 mm 424.0 W/m2 CLR
14:02 11.8 °C -6.1 °C 1024.3 hPa Calm     28 % 0.0 mm 420.0 W/m2 CLR
14:07 11.8 °C -7.1 °C 1023.9 hPa Calm     26 % 0.0 mm 415.0 W/m2 CLR
14:12 11.8 °C -5.7 °C 1023.9 hPa Calm     29 % 0.0 mm 411.0 W/m2 CLR
14:17 11.8 °C -6.6 °C 1023.9 hPa Calm     27 % 0.0 mm 404.0 W/m2 CLR
14:22 12.1 °C -6.4 °C 1023.9 hPa Calm     27 % 0.0 mm 401.0 W/m2 CLR
14:27 12.1 °C -5.9 °C 1023.9 hPa Calm     28 % 0.0 mm 394.0 W/m2 CLR
14:32 11.9 °C -6.1 °C 1023.9 hPa Calm     28 % 0.0 mm 388.0 W/m2 CLR
14:37 11.8 °C -5.7 °C 1023.9 hPa Calm     29 % 0.0 mm 381.0 W/m2 CLR
14:42 11.8 °C -5.7 °C 1023.9 hPa Calm     29 % 0.0 mm 374.0 W/m2 CLR
14:47 11.8 °C -6.2 °C 1023.9 hPa Calm     28 % 0.0 mm 367.0 W/m2 CLR
14:52 11.8 °C -5.7 °C 1023.9 hPa Calm     29 % 0.0 mm 360.0 W/m2 CLR
14:57 11.7 °C -5.8 °C 1023.9 hPa Calm     29 % 0.0 mm 352.0 W/m2 CLR
15:02 11.8 °C -5.7 °C 1023.9 hPa Calm     29 % 0.0 mm 345.0 W/m2 CLR
15:07 11.8 °C -5.7 °C 1023.9 hPa Calm     29 % 0.0 mm 334.0 W/m2 CLR
15:12 11.9 °C -5.2 °C 1023.9 hPa Calm     30 % 0.0 mm 325.0 W/m2 CLR
15:17 11.8 °C -5.2 °C 1023.9 hPa Calm     30 % 0.0 mm 316.0 W/m2 CLR
15:22 11.8 °C -5.7 °C 1023.9 hPa Calm     29 % 0.0 mm 308.0 W/m2 CLR
15:27 11.9 °C -4.3 °C 1023.9 hPa Calm     32 % 0.0 mm 297.0 W/m2 CLR
15:32 11.8 °C -5.2 °C 1023.9 hPa Calm     30 % 0.0 mm 287.0 W/m2 CLR
15:37 11.9 °C -5.2 °C 1023.6 hPa Calm     30 % 0.0 mm 276.0 W/m2 CLR
15:42 12.0 °C -4.6 °C 1023.6 hPa Calm     31 % 0.0 mm 265.0 W/m2 CLR
15:47 11.9 °C -5.2 °C 1023.6 hPa Calm     30 % 0.0 mm 253.0 W/m2 CLR
15:52 11.9 °C -4.3 °C 1023.6 hPa Calm     32 % 0.0 mm 237.0 W/m2 CLR
15:57 11.9 °C -4.7 °C 1023.6 hPa Calm     31 % 0.0 mm 225.0 W/m2 CLR
16:02 11.9 °C -4.3 °C 1023.6 hPa Calm     32 % 0.0 mm 211.0 W/m2 CLR
16:07 11.9 °C -3.5 °C 1023.6 hPa Calm     34 % 0.0 mm 197.0 W/m2 CLR
16:12 11.8 °C -4.3 °C 1023.9 hPa Calm     32 % 0.0 mm 181.0 W/m2 CLR
16:17 11.9 °C -3.9 °C 1023.9 hPa Calm     33 % 0.0 mm 167.0 W/m2 CLR
16:22 11.8 °C -4.4 °C 1023.9 hPa Calm     32 % 0.0 mm 153.0 W/m2 CLR
16:28 11.7 °C -4.4 °C 1023.9 hPa Calm     32 % 0.0 mm 139.0 W/m2 CLR
16:33 11.6 °C -3.8 °C 1023.9 hPa Calm     34 % 0.0 mm 123.0 W/m2 CLR
16:38 11.6 °C -3.4 °C 1023.9 hPa Calm     35 % 0.0 mm 109.0 W/m2 CLR
16:43 11.5 °C -3.4 °C 1024.3 hPa Calm     35 % 0.0 mm 97.0 W/m2 CLR
16:48 11.4 °C -3.5 °C 1024.3 hPa Calm     35 % 0.0 mm 83.0 W/m2 CLR
16:53 11.4 °C -3.6 °C 1024.3 hPa Calm     35 % 0.0 mm 65.0 W/m2 CLR
16:58 11.3 °C -4.0 °C 1024.3 hPa Calm     34 % 0.0 mm 54.0 W/m2 CLR
17:03 11.3 °C -3.6 °C 1024.3 hPa Calm     35 % 0.0 mm 49.0 W/m2 OVC
17:08 11.1 °C -3.4 °C 1024.3 hPa Calm     36 % 0.0 mm 37.0 W/m2 OVC
17:13 10.8 °C -2.9 °C 1024.3 hPa Calm     38 % 0.0 mm 26.0 W/m2 OVC
17:18 10.7 °C -3.1 °C 1024.3 hPa Calm     38 % 0.0 mm 19.0 W/m2 OVC
17:23 10.4 °C -3.3 °C 1024.6 hPa Calm     38 % 0.0 mm 14.0 W/m2 OVC
17:28 10.2 °C -3.2 °C 1024.6 hPa Calm     39 % 0.0 mm 12.0 W/m2 OVC
17:33 10.0 °C -3.3 °C 1024.6 hPa Calm     39 % 0.0 mm 11.0 W/m2 OVC
17:38 10.0 °C -3.3 °C 1024.6 hPa Calm     39 % 0.0 mm 9.0 W/m2 OVC
17:43 9.9 °C -3.1 °C 1024.6 hPa Calm     40 % 0.0 mm 5.0 W/m2 OVC
17:48 9.8 °C -3.2 °C 1024.6 hPa Calm     40 % 0.0 mm 0.0 W/m2 CLR
17:53 9.8 °C -2.8 °C 1024.9 hPa Calm     41 % 0.0 mm 0.0 W/m2 CLR
17:58 9.7 °C -2.9 °C 1024.9 hPa Calm     41 % 0.0 mm 0.0 W/m2 CLR
18:03 9.5 °C -2.8 °C 1024.9 hPa Calm     42 % 0.0 mm 0.0 W/m2 CLR
18:08 9.3 °C -2.9 °C 1024.9 hPa Calm     42 % 0.0 mm 0.0 W/m2 CLR
18:13 9.2 °C -2.4 °C 1024.9 hPa Calm     44 % 0.0 mm 0.0 W/m2 CLR
18:18 9.0 °C -2.6 °C 1025.3 hPa Calm     44 % 0.0 mm 0.0 W/m2 CLR
18:23 8.9 °C -2.4 °C 1025.3 hPa Calm     45 % 0.0 mm 0.0 W/m2 CLR
18:28 8.8 °C -2.4 °C 1025.3 hPa Calm     45 % 0.0 mm 0.0 W/m2 CLR
18:33 8.6 °C -1.8 °C 1025.3 hPa Calm     48 % 0.0 mm 0.0 W/m2 CLR
18:38 8.1 °C -2.3 °C 1025.6 hPa Calm     48 % 0.0 mm 0.0 W/m2 CLR
18:43 7.6 °C -2.4 °C 1025.6 hPa Calm     49 % 0.0 mm 0.0 W/m2 CLR
18:48 7.6 °C -2.5 °C 1025.6 hPa Calm     49 % 0.0 mm 0.0 W/m2 CLR
18:53 7.7 °C -2.3 °C 1025.6 hPa Calm     49 % 0.0 mm 0.0 W/m2 CLR
18:58 7.4 °C -2.1 °C 1025.6 hPa Calm     51 % 0.0 mm 0.0 W/m2 CLR
19:03 6.6 °C -2.1 °C 1025.6 hPa Calm     54 % 0.0 mm 0.0 W/m2 CLR
19:08 6.0 °C -2.1 °C 1026.0 hPa Calm     56 % 0.0 mm 0.0 W/m2 CLR
19:13 6.3 °C -2.1 °C 1026.0 hPa Calm     55 % 0.0 mm 0.0 W/m2 CLR
19:18 6.7 °C -2.0 °C 1026.0 hPa Calm     54 % 0.0 mm 0.0 W/m2 CLR
19:23 6.6 °C -1.8 °C 1026.0 hPa Calm     55 % 0.0 mm 0.0 W/m2 CLR
19:28 6.2 °C -1.9 °C 1026.3 hPa Calm     56 % 0.0 mm 0.0 W/m2 CLR
19:33 5.9 °C -2.0 °C 1026.3 hPa Calm     57 % 0.0 mm 0.0 W/m2 CLR
19:38 5.7 °C -1.9 °C 1026.6 hPa Calm     58 % 0.0 mm 0.0 W/m2 CLR
19:43 5.7 °C -1.9 °C 1026.3 hPa Calm     58 % 0.0 mm 0.0 W/m2 CLR
19:48 5.8 °C -1.6 °C 1026.3 hPa Calm     59 % 0.0 mm 0.0 W/m2 CLR
19:53 6.3 °C -1.8 °C 1026.6 hPa Calm     56 % 0.0 mm 0.0 W/m2 CLR
19:58 6.7 °C -1.7 °C 1026.6 hPa Calm     55 % 0.0 mm 0.0 W/m2 CLR
20:03 6.7 °C -1.7 °C 1026.6 hPa Calm     55 % 0.0 mm 0.0 W/m2 CLR
20:08 6.5 °C -1.7 °C 1026.6 hPa Calm     56 % 0.0 mm 0.0 W/m2 CLR
20:13 6.2 °C -1.7 °C 1026.6 hPa Calm     57 % 0.0 mm 0.0 W/m2 CLR
20:18 5.6 °C -1.8 °C 1026.6 hPa Calm     59 % 0.0 mm 0.0 W/m2 CLR
20:24 5.1 °C -1.8 °C 1026.6 hPa Calm     61 % 0.0 mm 0.0 W/m2 CLR
20:29 4.7 °C -1.8 °C 1026.6 hPa Calm     63 % 0.0 mm 0.0 W/m2 CLR
20:34 4.6 °C -1.7 °C 1027.0 hPa Calm     64 % 0.0 mm 0.0 W/m2 CLR
20:39 4.6 °C -1.6 °C 1027.0 hPa Calm     64 % 0.0 mm 0.0 W/m2 CLR
20:44 4.5 °C -1.7 °C 1027.0 hPa Calm     64 % 0.0 mm 0.0 W/m2 CLR
20:49 4.6 °C -1.7 °C 1027.0 hPa Calm     64 % 0.0 mm 0.0 W/m2 CLR
20:54 4.8 °C -1.7 °C 1027.0 hPa Calm     63 % 0.0 mm 0.0 W/m2 CLR
20:59 5.6 °C -1.6 °C 1027.0 hPa Calm     60 % 0.0 mm 0.0 W/m2 CLR
21:04 6.4 °C -1.5 °C 1027.0 hPa Calm     57 % 0.0 mm 0.0 W/m2 CLR
21:09 6.9 °C -1.7 °C 1027.0 hPa Calm     54 % 0.0 mm 0.0 W/m2 CLR
21:14 7.0 °C -1.7 °C 1027.0 hPa Calm     54 % 0.0 mm 0.0 W/m2 CLR
21:19 6.9 °C -1.8 °C 1027.0 hPa Calm     54 % 0.0 mm 0.0 W/m2 CLR
21:24 7.0 °C -1.9 °C 1027.3 hPa Calm     53 % 0.0 mm 0.0 W/m2 CLR
21:29 6.9 °C -1.7 °C 1027.0 hPa Calm     54 % 0.0 mm 0.0 W/m2 CLR
21:34 6.6 °C -2.1 °C 1027.3 hPa Calm     54 % 0.0 mm 0.0 W/m2 CLR
21:39 6.3 °C -2.1 °C 1027.3 hPa Calm     55 % 0.0 mm 0.0 W/m2 CLR
21:44 6.1 °C -2.3 °C 1027.3 hPa Calm     55 % 0.0 mm 0.0 W/m2 CLR
21:49 5.8 °C -2.1 °C 1027.3 hPa Calm     57 % 0.0 mm 0.0 W/m2 CLR
21:54 5.4 °C -2.0 °C 1027.3 hPa Calm     59 % 0.0 mm 0.0 W/m2 CLR
21:59 5.0 °C -2.1 °C 1027.7 hPa Calm     60 % 0.0 mm 0.0 W/m2 CLR
22:04 4.9 °C -2.2 °C 1027.7 hPa Calm     60 % 0.0 mm 0.0 W/m2 CLR
22:09 4.7 °C -1.9 °C 1027.7 hPa Calm     62 % 0.0 mm 0.0 W/m2 CLR
22:14 4.3 °C -2.1 °C 1027.7 hPa Calm     63 % 0.0 mm 0.0 W/m2 CLR
22:19 4.6 °C -2.1 °C 1027.7 hPa Calm     62 % 0.0 mm 0.0 W/m2 CLR
22:24 4.8 °C -1.9 °C 1028.0 hPa Calm     62 % 0.0 mm 0.0 W/m2 CLR
22:29 4.6 °C -2.1 °C 1028.0 hPa Calm     62 % 0.0 mm 0.0 W/m2 CLR
22:34 4.3 °C -2.1 °C 1028.0 hPa Calm     63 % 0.0 mm 0.0 W/m2 CLR
22:39 4.3 °C -2.2 °C 1028.0 hPa Calm     63 % 0.0 mm 0.0 W/m2 CLR
22:44 4.2 °C -2.0 °C 1028.0 hPa Calm     64 % 0.0 mm 0.0 W/m2 CLR
22:49 4.1 °C -1.9 °C 1028.0 hPa Calm     65 % 0.0 mm 0.0 W/m2 CLR
22:54 3.9 °C -2.1 °C 1028.0 hPa Calm     65 % 0.0 mm 0.0 W/m2 CLR
22:59 3.9 °C -1.8 °C 1028.0 hPa Calm     66 % 0.0 mm 0.0 W/m2 CLR
23:04 4.0 °C -1.8 °C 1028.0 hPa Calm     66 % 0.0 mm 0.0 W/m2 CLR
23:09 4.1 °C -1.7 °C 1028.0 hPa Calm     66 % 0.0 mm 0.0 W/m2 CLR
23:14 4.0 °C -1.8 °C 1028.3 hPa Calm     66 % 0.0 mm 0.0 W/m2 CLR
23:19 3.9 °C -1.8 °C 1028.3 hPa Calm     66 % 0.0 mm 0.0 W/m2 CLR
23:24 3.7 °C -1.8 °C 1028.3 hPa Calm     67 % 0.0 mm 0.0 W/m2 CLR
23:29 3.5 °C -2.1 °C 1028.3 hPa Calm     67 % 0.0 mm 0.0 W/m2 CLR
23:34 3.1 °C -2.1 °C 1028.3 hPa Calm     69 % 0.0 mm 0.0 W/m2 CLR
23:39 3.4 °C -1.7 °C 1028.3 hPa Calm     69 % 0.0 mm 0.0 W/m2 CLR
23:44 3.8 °C -1.7 °C 1028.3 hPa Calm     67 % 0.0 mm 0.0 W/m2 CLR
23:49 3.9 °C -1.7 °C 1028.7 hPa Calm     67 % 0.0 mm 0.0 W/m2 CLR
23:54 3.5 °C -2.1 °C 1028.7 hPa Calm     67 % 0.0 mm 0.0 W/m2 CLR
23:59 2.9 °C -2.2 °C 1028.7 hPa Calm     69 % 0.0 mm 0.0 W/m2 CLR
Lo Temps de Massalio
Compliments of Weather Underground - 1.25 mb